createdAt,value
2022-08-25T00:11:51.186Z,100752.41
2022-08-25T00:17:40.125Z,100742.22
2022-08-25T00:41:53.393Z,100684.63
2022-08-25T00:48:11.327Z,100744.25
2022-08-25T00:54:23.656Z,100679.47
2022-08-25T01:00:04.131Z,100669.59
2022-08-25T01:25:25.534Z,100732.22
2022-08-25T01:57:38.041Z,100706.41
2022-08-25T02:15:11.118Z,100647.59
2022-08-25T02:27:47.339Z,100608.84
2022-08-25T02:33:24.468Z,100693.56
2022-08-25T02:39:12.381Z,100663.66
2022-08-25T02:46:09.919Z,100712.66
2022-08-25T02:53:10.959Z,100703.94
2022-08-25T03:17:27.378Z,100722.78
2022-08-25T03:34:44.290Z,100724.66
2022-08-25T03:40:38.084Z,100644.66
2022-08-25T03:46:34.135Z,100750.38
2022-08-25T03:52:07.644Z,100657.56
2022-08-25T03:57:41.371Z,100703.16
2022-08-25T04:48:52.913Z,100679.41
2022-08-25T05:01:42.584Z,100773.50
2022-08-25T05:13:31.634Z,100665.59
2022-08-25T05:19:18.586Z,100667.09
2022-08-25T05:25:17.097Z,100738.81
2022-08-25T05:36:34.633Z,100680.16
2022-08-25T05:41:46.468Z,100728.06
2022-08-25T05:47:23.854Z,100771.25
2022-08-25T06:06:56.849Z,100775.03
2022-08-25T06:24:56.896Z,100760.44
2022-08-25T06:30:56.679Z,100685.84
2022-08-25T08:25:42.989Z,100717.16
2022-08-25T09:07:15.137Z,100619.00
2022-08-25T09:39:58.490Z,100580.72
2022-08-25T16:51:06.194Z,100402.22
2022-08-25T16:56:12.840Z,100387.94
2022-08-25T17:01:12.358Z,100463.88
2022-08-25T17:06:10.724Z,100395.78
2022-08-25T17:11:19.939Z,100472.50
2022-08-25T17:16:19.571Z,100431.16
2022-08-25T17:21:24.292Z,100390.66
2022-08-25T17:26:27.752Z,100401.59
2022-08-25T17:31:39.316Z,100402.59
2022-08-25T17:36:41.120Z,100430.66
2022-08-25T17:41:43.786Z,100447.34
2022-08-25T17:46:47.308Z,100462.34
2022-08-25T17:51:49.512Z,100507.16
2022-08-25T17:56:48.347Z,100473.03
2022-08-25T18:01:47.393Z,100474.81
2022-08-25T18:06:53.322Z,100477.00
2022-08-25T18:11:56.123Z,100426.00
2022-08-25T18:16:53.892Z,100491.00
2022-08-25T18:21:55.075Z,100513.91
2022-08-25T18:26:57.341Z,100518.53
2022-08-25T18:32:03.931Z,100437.03
2022-08-25T18:37:20.476Z,100445.34
2022-08-25T18:42:17.924Z,100524.06
2022-08-25T18:47:21.686Z,100501.38
2022-08-25T18:52:23.611Z,100535.97
2022-08-25T18:57:21.415Z,100478.41
2022-08-25T19:02:22.535Z,100437.06
2022-08-25T19:07:21.717Z,100459.78
2022-08-25T19:12:22.288Z,100541.44
2022-08-25T19:17:24.757Z,100467.19
2022-08-25T19:22:41.802Z,100466.91
2022-08-25T19:27:42.514Z,100497.16
2022-08-25T19:32:50.721Z,100455.66
2022-08-25T19:37:50.695Z,100492.56
2022-08-25T19:42:49.238Z,100503.00
2022-08-25T19:47:53.477Z,100536.31
2022-08-25T19:52:52.127Z,100497.97
2022-08-25T19:57:49.593Z,100539.84
2022-08-25T20:03:01.177Z,100532.34
2022-08-25T20:07:59.742Z,100505.78
2022-08-25T20:13:04.348Z,100458.81
2022-08-25T20:18:03.942Z,100544.97
2022-08-25T20:23:23.393Z,100523.84
2022-08-25T20:28:37.286Z,100564.69
2022-08-25T20:33:43.434Z,100522.66
2022-08-25T20:38:44.004Z,100478.59
2022-08-25T20:43:42.254Z,100543.97
2022-08-25T20:48:39.616Z,100540.22
2022-08-25T20:53:41.070Z,100550.63
2022-08-25T20:58:40.871Z,100472.97
2022-08-25T21:03:38.648Z,100575.75
2022-08-25T21:08:38.083Z,100475.00
2022-08-25T21:13:53.751Z,100520.84
2022-08-25T21:18:51.551Z,100529.88
2022-08-25T21:23:50.548Z,100540.63
2022-08-25T21:29:07.069Z,100464.31
2022-08-25T21:34:08.159Z,100534.66
2022-08-25T21:39:05.724Z,100472.53
2022-08-25T21:44:09.149Z,100505.34
2022-08-25T21:49:07.567Z,100492.22
2022-08-25T21:54:10.377Z,100553.25
2022-08-25T21:59:13.691Z,100505.88
2022-08-25T22:04:14.001Z,100510.97
2022-08-25T22:09:12.556Z,100510.69
2022-08-25T22:14:13.305Z,100539.50
2022-08-25T22:19:13.541Z,100519.38
2022-08-25T22:24:13.420Z,100517.03
2022-08-25T22:29:14.111Z,100508.94
2022-08-25T22:34:31.665Z,100478.78
2022-08-25T22:39:31.332Z,100465.94
2022-08-25T22:44:30.419Z,100556.72
2022-08-25T22:49:28.693Z,100554.13
2022-08-25T22:54:26.185Z,100532.56
2022-08-25T22:59:26.609Z,100448.69
2022-08-25T23:04:28.095Z,100544.94
2022-08-25T23:09:25.217Z,100514.63
2022-08-25T23:14:22.748Z,100534.03
2022-08-25T23:19:20.311Z,100545.50
2022-08-25T23:24:29.291Z,100505.78
2022-08-25T23:29:28.004Z,100535.63
2022-08-25T23:34:25.815Z,100496.03
2022-08-25T23:39:23.696Z,100530.13
2022-08-25T23:44:25.990Z,100530.44
2022-08-25T23:49:24.172Z,100527.81
2022-08-25T23:54:30.973Z,100531.44
2022-08-25T23:59:29.052Z,100466.47
